createdAt,value
2023-02-15T00:00:16.021Z,2.38
2023-02-15T00:02:43.902Z,2.56
2023-02-15T00:05:14.333Z,2.51
2023-02-15T00:07:42.146Z,2.58
2023-02-15T00:10:10.342Z,2.49
2023-02-15T00:12:38.127Z,2.78
2023-02-15T00:15:06.143Z,2.71
2023-02-15T00:17:34.082Z,2.60
2023-02-15T00:20:02.008Z,2.81
2023-02-15T00:22:32.697Z,2.84
2023-02-15T00:25:00.838Z,2.80
2023-02-15T00:27:28.589Z,2.72
2023-02-15T00:29:56.383Z,2.73
2023-02-15T00:32:24.728Z,2.81
2023-02-15T00:34:52.633Z,2.78
2023-02-15T00:37:20.627Z,2.80
2023-02-15T00:39:51.107Z,2.93
2023-02-15T00:42:22.044Z,3.01
2023-02-15T00:44:49.762Z,2.82
2023-02-15T00:47:17.766Z,2.95
2023-02-15T00:49:45.586Z,2.87
2023-02-15T00:52:13.593Z,2.78
2023-02-15T00:54:41.382Z,2.81
2023-02-15T00:57:09.052Z,2.83
2023-02-15T00:59:36.733Z,2.82
2023-02-15T01:02:04.616Z,2.79
2023-02-15T01:04:38.329Z,2.81
2023-02-15T01:07:09.214Z,2.76
2023-02-15T01:09:37.148Z,2.68
2023-02-15T01:12:04.946Z,2.63
2023-02-15T01:14:33.094Z,2.71
2023-02-15T01:17:00.805Z,2.76
2023-02-15T01:19:33.151Z,2.84
2023-02-15T01:22:00.885Z,2.80
2023-02-15T01:24:28.837Z,2.91
2023-02-15T01:26:56.768Z,2.74
2023-02-15T01:29:24.449Z,2.79
2023-02-15T01:31:52.627Z,2.58
2023-02-15T01:34:20.443Z,2.69
2023-02-15T01:36:49.489Z,2.65
2023-02-15T01:39:17.182Z,2.64
2023-02-15T01:41:45.036Z,2.65
2023-02-15T01:44:46.859Z,2.77
2023-02-15T01:47:17.601Z,2.91
2023-02-15T01:49:45.612Z,2.80
2023-02-15T01:52:14.772Z,2.94
2023-02-15T01:54:43.294Z,2.93
2023-02-15T01:57:14.000Z,2.88
2023-02-15T01:59:42.116Z,2.68
2023-02-15T02:02:10.715Z,2.65
2023-02-15T02:04:45.106Z,2.83
2023-02-15T02:07:14.108Z,2.75
2023-02-15T02:09:41.838Z,2.62
2023-02-15T02:12:09.559Z,2.58
2023-02-15T02:14:37.812Z,2.61
2023-02-15T02:17:32.789Z,2.87
2023-02-15T02:20:21.810Z,2.54
2023-02-15T02:23:12.279Z,2.70
2023-02-15T02:26:18.428Z,3.06
2023-02-15T02:28:55.257Z,2.85
2023-02-15T02:31:45.674Z,2.85
2023-02-15T02:34:21.114Z,2.92
2023-02-15T02:36:53.869Z,2.86
2023-02-15T02:39:42.059Z,2.91
2023-02-15T02:42:18.372Z,2.80
2023-02-15T02:44:52.975Z,3.01
2023-02-15T02:47:25.445Z,3.36
2023-02-15T02:49:53.921Z,3.40
2023-02-15T02:52:42.154Z,2.91
2023-02-15T02:55:22.490Z,3.09
2023-02-15T02:58:04.929Z,3.01
2023-02-15T03:00:37.926Z,3.09
2023-02-15T03:03:09.017Z,2.89
2023-02-15T03:05:40.764Z,2.98
2023-02-15T03:08:11.089Z,3.13
2023-02-15T03:10:40.829Z,2.92
2023-02-15T03:13:08.997Z,2.98
2023-02-15T03:15:59.634Z,3.13
2023-02-15T03:18:33.135Z,2.95
2023-02-15T03:21:01.585Z,2.84
2023-02-15T03:23:30.334Z,2.84
2023-02-15T03:26:02.237Z,3.14
2023-02-15T03:28:43.972Z,3.06
2023-02-15T03:31:12.449Z,3.00
2023-02-15T03:33:45.513Z,3.07
2023-02-15T03:36:24.091Z,3.00
2023-02-15T03:39:06.456Z,2.87
2023-02-15T03:41:38.398Z,2.79
2023-02-15T03:44:20.160Z,2.80
2023-02-15T03:46:56.017Z,2.89
2023-02-15T03:49:30.245Z,2.90
2023-02-15T03:51:58.887Z,2.72
2023-02-15T03:54:43.899Z,2.85
2023-02-15T03:57:41.001Z,3.05
2023-02-15T04:00:43.650Z,2.95
2023-02-15T04:03:17.284Z,3.06
2023-02-15T04:05:45.750Z,2.98
2023-02-15T04:08:13.790Z,2.82
2023-02-15T04:10:59.225Z,2.94
2023-02-15T04:13:40.089Z,2.62
2023-02-15T04:16:08.670Z,2.81
2023-02-15T04:19:02.325Z,2.93
2023-02-15T04:21:50.021Z,2.87
2023-02-15T04:24:36.870Z,2.99
2023-02-15T04:27:05.507Z,2.93
2023-02-15T04:29:33.636Z,2.88
2023-02-15T04:32:01.922Z,2.75
2023-02-15T04:34:29.784Z,3.02
2023-02-15T04:36:57.756Z,2.95
2023-02-15T04:39:25.432Z,2.90
2023-02-15T04:41:53.252Z,2.95
2023-02-15T04:44:20.977Z,2.77
2023-02-15T04:46:48.697Z,2.83
2023-02-15T04:49:16.354Z,3.17
2023-02-15T04:51:44.395Z,3.03
2023-02-15T04:54:12.194Z,2.90
2023-02-15T04:56:40.509Z,3.06
2023-02-15T04:59:13.409Z,2.83
2023-02-15T05:01:42.763Z,3.01
2023-02-15T05:04:10.698Z,3.20
2023-02-15T05:06:39.108Z,3.06
2023-02-15T05:09:06.827Z,2.97
2023-02-15T05:11:34.710Z,3.24
2023-02-15T05:14:02.686Z,3.00
2023-02-15T05:16:30.541Z,2.74
2023-02-15T05:18:59.067Z,3.02
2023-02-15T05:21:31.539Z,3.08
2023-02-15T05:23:59.489Z,2.85
2023-02-15T05:26:45.663Z,2.94
2023-02-15T05:29:13.380Z,3.17
2023-02-15T05:31:41.304Z,2.95
2023-02-15T05:34:09.456Z,2.97
2023-02-15T05:36:37.224Z,2.93
2023-02-15T05:39:07.058Z,3.12
2023-02-15T05:41:34.854Z,3.10
2023-02-15T05:44:02.718Z,3.49
2023-02-15T05:46:30.642Z,3.27
2023-02-15T05:48:58.708Z,3.08
2023-02-15T05:51:26.457Z,2.96
2023-02-15T05:53:54.174Z,3.12
2023-02-15T05:56:22.524Z,3.14
2023-02-15T05:58:50.949Z,3.11
2023-02-15T06:01:19.414Z,3.13
2023-02-15T06:03:47.457Z,3.15
2023-02-15T06:06:16.040Z,3.15
2023-02-15T06:08:43.977Z,3.05
2023-02-15T06:11:12.067Z,3.37
2023-02-15T06:13:40.199Z,3.34
2023-02-15T06:16:08.142Z,3.36
2023-02-15T06:18:35.957Z,3.38
2023-02-15T06:21:03.805Z,3.41
2023-02-15T06:23:31.857Z,3.16
2023-02-15T06:25:59.864Z,3.25
2023-02-15T06:28:27.677Z,3.26
2023-02-15T06:30:55.417Z,3.21
2023-02-15T06:33:24.175Z,3.33
2023-02-15T06:35:52.000Z,3.48
2023-02-15T06:38:19.761Z,3.40
2023-02-15T06:40:47.764Z,3.35
2023-02-15T06:43:15.413Z,3.53
2023-02-15T06:45:43.446Z,3.43
2023-02-15T06:48:12.388Z,3.31
2023-02-15T06:50:40.084Z,3.41
2023-02-15T06:53:12.076Z,3.36
2023-02-15T06:55:39.954Z,3.59
2023-02-15T06:58:07.786Z,3.54
2023-02-15T07:00:35.629Z,3.52
2023-02-15T07:03:04.039Z,3.65
2023-02-15T07:05:34.361Z,3.65
2023-02-15T07:08:02.303Z,3.65
2023-02-15T07:10:30.397Z,3.52
2023-02-15T07:12:58.106Z,3.64
2023-02-15T07:15:26.477Z,3.51
2023-02-15T07:17:54.948Z,3.61
2023-02-15T07:20:23.577Z,3.55
2023-02-15T07:22:52.283Z,3.63
2023-02-15T07:25:20.222Z,3.65
2023-02-15T07:27:47.944Z,3.72
2023-02-15T07:30:17.208Z,3.79
2023-02-15T07:33:05.676Z,3.60
2023-02-15T07:35:36.114Z,3.58
2023-02-15T07:38:03.809Z,3.56
2023-02-15T07:40:31.732Z,3.66
2023-02-15T07:43:00.295Z,3.68
2023-02-15T07:45:28.279Z,3.59
2023-02-15T07:47:56.910Z,3.61
2023-02-15T07:50:24.678Z,3.70
2023-02-15T07:52:52.820Z,3.63
2023-02-15T07:55:20.731Z,3.59
2023-02-15T07:57:49.781Z,3.56
2023-02-15T08:00:18.828Z,3.67
2023-02-15T08:03:10.786Z,3.94
2023-02-15T08:05:38.867Z,3.73
2023-02-15T08:08:06.901Z,3.63
2023-02-15T08:10:53.796Z,3.62
2023-02-15T08:13:23.310Z,3.58
2023-02-15T08:15:56.227Z,3.69
2023-02-15T08:18:24.096Z,3.69
2023-02-15T08:20:52.268Z,3.60
2023-02-15T08:23:20.686Z,3.80
2023-02-15T08:25:48.441Z,3.80
2023-02-15T08:28:16.426Z,3.80
2023-02-15T08:30:44.454Z,3.72
2023-02-15T08:33:12.865Z,3.78
2023-02-15T08:35:40.946Z,3.78
2023-02-15T08:38:09.699Z,3.74
2023-02-15T08:40:39.243Z,4.04
2023-02-15T08:43:08.228Z,3.92
2023-02-15T08:45:37.079Z,3.38
2023-02-15T08:48:05.487Z,3.59
2023-02-15T08:50:35.071Z,3.78
2023-02-15T08:53:03.217Z,3.71
2023-02-15T08:55:31.037Z,3.69
2023-02-15T08:57:59.042Z,3.83
2023-02-15T09:00:27.127Z,3.68
2023-02-15T09:02:54.966Z,4.13
2023-02-15T09:05:23.049Z,3.84
2023-02-15T09:07:50.863Z,3.87
2023-02-15T09:10:18.988Z,4.04
2023-02-15T09:12:47.698Z,4.15
2023-02-15T09:15:19.831Z,4.08
2023-02-15T09:17:50.024Z,4.36
2023-02-15T09:20:17.981Z,4.30
2023-02-15T09:22:45.899Z,4.38
2023-02-15T09:25:14.789Z,4.73
2023-02-15T09:27:43.326Z,4.67
2023-02-15T09:30:12.402Z,4.42
2023-02-15T09:32:43.428Z,4.39
2023-02-15T09:35:13.361Z,4.37
2023-02-15T09:37:41.596Z,4.31
2023-02-15T09:40:09.665Z,4.11
2023-02-15T09:43:23.806Z,4.55
2023-02-15T09:46:13.787Z,4.65
2023-02-15T09:48:43.068Z,4.52
2023-02-15T09:51:18.104Z,4.47
2023-02-15T09:53:51.934Z,4.55
2023-02-15T09:56:39.970Z,4.74
2023-02-15T09:59:36.608Z,4.78
2023-02-15T10:02:07.322Z,4.42
2023-02-15T10:04:35.638Z,4.58
2023-02-15T10:07:28.249Z,4.59
2023-02-15T10:10:13.322Z,4.86
2023-02-15T10:13:14.942Z,4.85
2023-02-15T10:15:59.280Z,4.70
2023-02-15T10:18:49.978Z,4.49
2023-02-15T10:21:53.134Z,4.58
2023-02-15T10:24:42.633Z,4.89
2023-02-15T10:27:14.665Z,4.82
2023-02-15T10:30:08.710Z,4.65
2023-02-15T10:33:00.330Z,4.70
2023-02-15T10:35:39.364Z,4.78
2023-02-15T10:38:18.194Z,4.55
2023-02-15T10:41:08.211Z,4.30
2023-02-15T10:43:47.677Z,4.16
2023-02-15T10:46:41.461Z,4.16
2023-02-15T10:49:27.543Z,4.30
2023-02-15T10:52:04.129Z,4.34
2023-02-15T10:54:42.120Z,4.26
2023-02-15T10:57:19.693Z,4.04
2023-02-15T10:59:57.168Z,3.95
2023-02-15T11:02:47.933Z,4.19
2023-02-15T11:05:37.270Z,4.33
2023-02-15T11:08:06.413Z,3.77
2023-02-15T11:10:37.918Z,4.28
2023-02-15T11:13:18.230Z,4.28
2023-02-15T11:15:55.539Z,4.30
2023-02-15T11:18:25.930Z,4.77
2023-02-15T11:20:59.523Z,4.65
2023-02-15T11:23:27.455Z,4.60
2023-02-15T11:26:03.462Z,4.36
2023-02-15T11:28:48.142Z,4.54
2023-02-15T11:31:23.699Z,4.54
2023-02-15T11:33:58.478Z,4.46
2023-02-15T11:36:27.961Z,4.45
2023-02-15T11:38:59.571Z,4.60
2023-02-15T11:41:31.219Z,4.24
2023-02-15T11:44:09.192Z,4.08
2023-02-15T11:46:37.985Z,3.90
2023-02-15T11:49:32.760Z,4.26
2023-02-15T11:52:08.530Z,4.72
2023-02-15T11:54:37.783Z,4.38
2023-02-15T11:57:42.023Z,4.70
2023-02-15T12:00:14.275Z,4.26
2023-02-15T12:02:46.532Z,4.25
2023-02-15T12:05:15.292Z,4.23
2023-02-15T12:08:05.118Z,4.18
2023-02-15T12:10:39.532Z,4.17
2023-02-15T12:13:14.016Z,4.32
2023-02-15T12:15:47.693Z,4.47
2023-02-15T12:18:27.305Z,4.50
2023-02-15T12:20:55.301Z,4.72
2023-02-15T12:23:23.065Z,4.37
2023-02-15T12:25:55.606Z,4.42
2023-02-15T12:28:40.755Z,4.33
2023-02-15T12:31:24.537Z,4.35
2023-02-15T12:33:55.128Z,4.60
2023-02-15T12:36:29.145Z,4.54
2023-02-15T12:39:29.984Z,4.50
2023-02-15T12:42:05.144Z,4.58
2023-02-15T12:44:37.181Z,4.64
2023-02-15T12:47:18.800Z,4.69
2023-02-15T12:50:04.754Z,4.28
2023-02-15T12:52:32.904Z,4.23
2023-02-15T12:55:21.103Z,3.81
2023-02-15T12:57:49.039Z,4.07
2023-02-15T13:00:19.447Z,4.00
2023-02-15T13:02:54.677Z,3.66
2023-02-15T13:05:44.156Z,3.48
2023-02-15T13:08:23.315Z,3.58
2023-02-15T13:11:00.587Z,3.60
2023-02-15T13:13:33.002Z,3.47
2023-02-15T13:16:06.709Z,3.09
2023-02-15T13:18:47.567Z,3.35
2023-02-15T13:21:17.892Z,3.24
2023-02-15T13:23:49.902Z,3.33
2023-02-15T13:26:20.177Z,3.25
2023-02-15T13:28:50.085Z,3.39
2023-02-15T13:31:22.160Z,3.15
2023-02-15T13:34:02.916Z,3.35
2023-02-15T13:36:40.723Z,3.42
2023-02-15T13:39:26.187Z,3.23
2023-02-15T13:42:03.345Z,3.26
2023-02-15T13:44:40.501Z,3.46
2023-02-15T13:47:21.234Z,3.22
2023-02-15T13:50:14.186Z,3.19
2023-02-15T13:52:55.738Z,3.09
2023-02-15T13:55:42.539Z,3.26
2023-02-15T13:58:28.331Z,3.07
2023-02-15T14:01:05.251Z,3.18
2023-02-15T14:04:10.176Z,3.25
2023-02-15T14:07:10.879Z,3.24
2023-02-15T14:09:48.732Z,3.12
2023-02-15T14:12:31.681Z,2.86
2023-02-15T14:15:08.927Z,3.21
2023-02-15T14:17:53.546Z,2.96
2023-02-15T14:20:38.734Z,2.87
2023-02-15T14:23:12.783Z,2.87
2023-02-15T14:25:45.965Z,2.82
2023-02-15T14:28:24.695Z,2.81
2023-02-15T14:30:53.903Z,2.76
2023-02-15T14:33:41.797Z,2.81
2023-02-15T14:36:12.603Z,2.86
2023-02-15T14:38:58.213Z,2.77
2023-02-15T14:41:45.168Z,2.84
2023-02-15T14:44:17.454Z,2.72
2023-02-15T14:46:59.967Z,2.82
2023-02-15T14:49:29.105Z,2.71
2023-02-15T14:52:01.359Z,2.61
2023-02-15T14:54:34.403Z,2.38
2023-02-15T14:57:02.086Z,2.47
2023-02-15T14:59:59.527Z,2.61
2023-02-15T15:02:51.671Z,2.54
2023-02-15T15:09:26.993Z,2.47
2023-02-15T15:12:26.921Z,2.33
2023-02-15T15:14:56.701Z,2.47
2023-02-15T15:17:39.199Z,2.31
2023-02-15T15:20:08.534Z,2.42
2023-02-15T15:22:36.554Z,2.49
2023-02-15T15:25:11.912Z,2.31
2023-02-15T15:27:55.241Z,2.29
2023-02-15T15:30:24.928Z,2.22
2023-02-15T15:32:56.193Z,2.27
2023-02-15T15:35:45.589Z,2.15
2023-02-15T15:38:28.397Z,2.12
2023-02-15T15:41:15.186Z,2.19
2023-02-15T15:44:12.552Z,2.29
2023-02-15T15:46:58.406Z,2.14
2023-02-15T15:49:28.413Z,2.13
2023-02-15T15:51:56.108Z,2.31
2023-02-15T15:54:25.311Z,2.23
2023-02-15T15:57:05.655Z,2.09
2023-02-15T15:59:35.141Z,2.14
2023-02-15T16:02:09.110Z,2.33
2023-02-15T16:04:37.183Z,2.18
2023-02-15T16:07:19.619Z,2.28
2023-02-15T16:09:58.684Z,2.27
2023-02-15T16:12:30.649Z,2.14
2023-02-15T16:15:14.544Z,2.14
2023-02-15T16:17:44.200Z,2.30
2023-02-15T16:20:19.775Z,2.21
2023-02-15T16:22:48.371Z,2.25
2023-02-15T16:25:28.384Z,2.02
2023-02-15T16:27:56.288Z,2.07
2023-02-15T16:30:31.310Z,2.22
2023-02-15T16:33:10.601Z,2.14
2023-02-15T16:35:58.496Z,2.22
2023-02-15T16:38:52.403Z,2.30
2023-02-15T16:41:28.369Z,2.09
2023-02-15T16:44:02.569Z,1.98
2023-02-15T16:46:34.383Z,2.21
2023-02-15T16:49:05.443Z,2.05
2023-02-15T16:51:34.322Z,1.98
2023-02-15T16:54:07.229Z,1.98
2023-02-15T16:56:35.163Z,2.03
2023-02-15T16:59:02.812Z,2.01
2023-02-15T17:01:33.560Z,2.01
2023-02-15T17:04:23.221Z,2.03
2023-02-15T17:07:04.511Z,1.96
2023-02-15T17:09:33.657Z,1.71
2023-02-15T17:12:03.449Z,1.75
2023-02-15T17:14:32.332Z,1.71
2023-02-15T17:17:01.318Z,1.79
2023-02-15T17:19:34.983Z,1.74
2023-02-15T17:22:28.144Z,1.77
2023-02-15T17:25:00.450Z,1.74
2023-02-15T17:27:29.695Z,1.75
2023-02-15T17:30:05.651Z,1.69
2023-02-15T17:32:37.532Z,1.79
2023-02-15T17:35:21.526Z,1.44
2023-02-15T17:37:49.990Z,1.69
2023-02-15T17:40:20.007Z,1.65
2023-02-15T17:42:47.793Z,1.67
2023-02-15T17:45:16.049Z,1.62
2023-02-15T17:47:43.947Z,1.61
2023-02-15T17:50:38.053Z,1.52
2023-02-15T17:53:09.005Z,1.70
2023-02-15T17:55:39.215Z,1.52
2023-02-15T17:58:19.552Z,1.36
2023-02-15T18:01:11.871Z,1.50
2023-02-15T18:04:08.611Z,1.51
2023-02-15T18:06:56.764Z,1.46
2023-02-15T18:09:43.625Z,1.51
2023-02-15T18:12:31.358Z,1.47
2023-02-15T18:14:59.427Z,1.55
2023-02-15T18:17:34.902Z,1.38
2023-02-15T18:20:05.655Z,1.46
2023-02-15T18:22:33.422Z,1.50
2023-02-15T18:25:01.155Z,1.51
2023-02-15T18:27:29.002Z,1.58
2023-02-15T18:29:56.899Z,1.48
2023-02-15T18:32:34.300Z,1.37
2023-02-15T18:35:02.257Z,1.46
2023-02-15T18:37:58.909Z,1.47
2023-02-15T18:40:27.728Z,1.42
2023-02-15T18:42:57.249Z,1.21
2023-02-15T18:45:33.414Z,1.23
2023-02-15T18:48:01.204Z,1.31
2023-02-15T18:50:31.816Z,1.25
2023-02-15T18:52:59.928Z,1.09
2023-02-15T18:55:28.235Z,1.06
2023-02-15T18:57:57.001Z,1.23
2023-02-15T19:00:32.552Z,1.15
2023-02-15T19:03:02.117Z,1.19
2023-02-15T19:05:30.927Z,1.14
2023-02-15T19:07:59.795Z,0.88
2023-02-15T19:10:28.837Z,1.10
2023-02-15T19:12:56.506Z,1.08
2023-02-15T19:15:26.674Z,0.97
2023-02-15T19:17:54.636Z,0.87
2023-02-15T19:20:32.654Z,0.98
2023-02-15T19:23:01.603Z,0.70
2023-02-15T19:25:30.751Z,0.96
2023-02-15T19:27:58.973Z,0.79
2023-02-15T19:30:30.863Z,0.90
2023-02-15T19:32:58.960Z,0.75
2023-02-15T19:35:27.850Z,0.67
2023-02-15T19:38:00.434Z,0.45
2023-02-15T19:40:32.817Z,0.37
2023-02-15T19:43:00.482Z,0.57
2023-02-15T19:45:29.802Z,0.61
2023-02-15T19:47:57.493Z,0.48
2023-02-15T19:50:30.725Z,0.33
2023-02-15T19:52:58.548Z,0.28
2023-02-15T19:55:28.170Z,0.12
2023-02-15T19:57:56.872Z,0.07
2023-02-15T20:00:29.359Z,0.24
2023-02-15T20:02:59.400Z,0.19
2023-02-15T20:05:31.064Z,0.24
2023-02-15T20:07:58.661Z,0.15
2023-02-15T20:10:30.736Z,0.15
2023-02-15T20:12:58.989Z,0.05
2023-02-15T20:15:34.604Z,0.11
2023-02-15T20:18:04.315Z,0.09
2023-02-15T20:20:39.258Z,-0.02
2023-02-15T20:23:07.309Z,-0.09
2023-02-15T20:25:34.949Z,-0.02
2023-02-15T20:28:02.711Z,-0.14
2023-02-15T20:30:31.391Z,-0.16
2023-02-15T20:32:59.273Z,-0.13
2023-02-15T20:35:28.746Z,-0.35
2023-02-15T20:37:57.326Z,-0.31
2023-02-15T20:40:26.673Z,-0.33
2023-02-15T20:42:54.574Z,-0.47
2023-02-15T20:45:26.002Z,-0.50
2023-02-15T20:47:58.493Z,-0.47
2023-02-15T20:50:28.252Z,-0.54
2023-02-15T20:52:57.820Z,-0.47
2023-02-15T20:55:30.482Z,-0.40
2023-02-15T20:57:59.734Z,-0.61
2023-02-15T21:00:28.807Z,-0.61
2023-02-15T21:03:01.176Z,-0.50
2023-02-15T21:05:30.950Z,-0.50
2023-02-15T21:08:12.167Z,-0.53
2023-02-15T21:10:45.378Z,-0.72
2023-02-15T21:13:39.808Z,-0.53
2023-02-15T21:16:09.124Z,-0.61
2023-02-15T21:18:39.020Z,-0.69
2023-02-15T21:21:06.785Z,-0.72
2023-02-15T21:23:42.017Z,-0.65
2023-02-15T21:26:20.171Z,-0.71
2023-02-15T21:28:49.194Z,-0.71
2023-02-15T21:31:18.760Z,-0.71
2023-02-15T21:33:46.738Z,-0.63
2023-02-15T21:36:19.944Z,-0.71
2023-02-15T21:38:47.645Z,-0.71
2023-02-15T21:41:39.038Z,-0.55
2023-02-15T21:44:42.086Z,-0.45
2023-02-15T21:47:42.482Z,-0.41
2023-02-15T21:50:33.873Z,-0.33
2023-02-15T21:53:01.585Z,-0.24
2023-02-15T21:55:29.354Z,-0.34
2023-02-15T21:57:57.156Z,-0.23
2023-02-15T22:00:25.681Z,-0.35
2023-02-15T22:02:54.984Z,-0.54
2023-02-15T22:05:33.491Z,-0.34
2023-02-15T22:08:01.300Z,-0.23
2023-02-15T22:10:32.980Z,-0.24
2023-02-15T22:13:01.686Z,-0.22
2023-02-15T22:15:36.632Z,-0.15
2023-02-15T22:18:04.722Z,-0.15
2023-02-15T22:20:32.693Z,0.12
2023-02-15T22:23:00.496Z,0.08
2023-02-15T22:25:28.443Z,0.06
2023-02-15T22:27:59.074Z,0.10
2023-02-15T22:30:29.265Z,0.01
2023-02-15T22:32:57.460Z,-0.08
2023-02-15T22:35:34.432Z,-0.01
2023-02-15T22:38:02.197Z,-0.07
2023-02-15T22:40:32.039Z,-0.08
2023-02-15T22:43:01.017Z,-0.06
2023-02-15T22:45:29.132Z,-0.25
2023-02-15T22:47:57.796Z,-0.43
2023-02-15T22:50:27.547Z,-0.21
2023-02-15T22:52:55.221Z,-0.22
2023-02-15T22:55:27.983Z,-0.10
2023-02-15T22:57:55.803Z,-0.20
2023-02-15T23:00:25.869Z,-0.28
2023-02-15T23:02:56.634Z,-0.15
2023-02-15T23:05:33.728Z,-0.28
2023-02-15T23:08:11.705Z,-0.14
2023-02-15T23:10:39.752Z,-0.39
2023-02-15T23:13:25.987Z,-0.49
2023-02-15T23:15:58.858Z,-0.63
2023-02-15T23:18:38.286Z,-0.51
2023-02-15T23:21:31.303Z,-0.57
2023-02-15T23:24:19.083Z,-0.61
2023-02-15T23:26:47.634Z,-0.71
2023-02-15T23:29:17.747Z,-0.77
2023-02-15T23:31:47.202Z,-0.67
2023-02-15T23:34:29.476Z,-0.81
2023-02-15T23:36:57.365Z,-0.90
2023-02-15T23:39:46.273Z,-0.90
2023-02-15T23:42:21.796Z,-0.97
2023-02-15T23:44:51.075Z,-0.83
2023-02-15T23:47:19.853Z,-0.81
2023-02-15T23:49:47.532Z,-0.84
2023-02-15T23:52:15.211Z,-1.05
2023-02-15T23:54:43.487Z,-1.29
2023-02-15T23:57:11.331Z,-1.32
2023-02-15T23:59:39.912Z,-1.08
